Hauppauge, New York
Current Conditions -  °F | °C
As of 3:07 AM on Monday 24 Nov 2014 (Local Time) from KISP Reporting Station
Overcast Overcast  
Wind Chill: 57°   Ceiling: 700
Heat Index: 57°   Visibility: 9mi
Dew Point: 54°   Wind: 16mph
Humidity: 89%   Direction: 130°SE
Pressure: 29.87"   Gusts: NA
Location:  40.83°N, 73.2°W
Report Text: KISP 240807Z AUTO 13014KT 9SM BKN007 BKN013 OVC023 14/12 A2987 RMK AO2 RAE07 PRESFR P0000 T01390122
Loading
Personal Weather Stations






























Interactive Weather Map New forecast layout! Learn more

10-Day Weather Forecast

Advertisements
Track Severe Weather on mobile